Castlegar, British Columbia

6:28 AM PDT on June 29, 2017 (GMT -0700)
Castlegar | | Change Station

Elev 1624 ft 49.30 °N, 117.63 °W | Updated 28 minutes ago

Clear
Clear
48 °F
Feels Like 48 °F
N
2
Wind Variable Wind from Variable

Today
High -- | Low -- °F
--% Chance of Precip.
Yesterday
High -- | Low -- °F
Precip. -- in
Pressure 30.12 in
Visibility 15.0 miles
Clouds Clear
Dew Point 45 °F
Humidity 87%
Rainfall 0.00 in
Snow Depth Not available.
4:48 AM 8:59 PM
Waxing Crescent, 35% visible
METAR CYCG 291300Z VRB02KT 15SM SKC 09/07 A3010 RMK SLP197
Pressure 30.12 in
Visibility 15.0 miles
Clouds Clear
Dew Point 45 °F
Humidity 87%
Rainfall 0.00 in
Snow Depth Not available.
4:48 AM 8:59 PM
Waxing Crescent, 35% visible
METAR CYCG 291300Z VRB02KT 15SM SKC 09/07 A3010 RMK SLP197

Get Severe Weather Alerts

Thanks for signing up!

Be on the lookout for a verification email in your inbox.

You'll start receiving the daily forecast at 6 AM.

×

10-Day Weather Forecast

Almanac

Astronomy

Jun. 29, 2017 Rise Set
Actual Time
Civil Twilight
Nautical Twilight
Astronomical Twilight
Moon
Length of Visible Light
Length of Day
Tomorrow will be .
, % of the Moon is Illuminated

Today's Extremes

Country Highs Country Lows

Community

WunderPhotos

Category 6

Welcome to Category 6. This is the collective home for Weather Underground's featured writeups by Dr. Jeff Masters (right), Bob Henson (left), Chris Burt, and other regular contributors.

Nearby

Air Quality

  Air Quality AQ Index Pollutant
Not available.

Snow Depth

Station Depth Elevation

Earthquake Activity

City Distance Mag. Time & Date
Minimum magnitude displayed is 2.5.

Coastal Water Temperatures

Place Temperature

Stations

Nearby Weather Stations

Station Location Temp. Windchill Dew Point Humidity Wind Precip. Elev Updated Type
                   

Watches & Warnings

There are currently no watches in effect.